Time;durP1;ratioP1;P1;durP2;ratioP2;P2;SDS_P1;SDS_P2;PMS_P1;PMS_P2;Temp;Humidity;BMP_temperature;BMP_pressure;BME280_temperature;BME280_humidity;BME280_pressure;Samples;Min_cycle;Max_cycle;Signal;HPM_P1;HPM_P2
2021/11/12 08:03:14;;;;;;;114.95;49.65;;;154.50;2252.80;;;;;;4696488;30;20061;-93
2021/11/12 09:28:16;;;;;;;132.05;62.55;;;204.90;2252.80;;;;;;4828066;29;20038;-92
2021/11/12 10:07:14;;;;;;;81.20;41.55;;;307.70;2150.40;;;;;;551792;24;20312;-92
2021/11/12 10:09:42;;;;;;;71.85;36.10;;;332.90;1996.80;;;;;;4782374;30;20455;-91
2021/11/12 10:12:09;;;;;;;74.90;38.05;;;308.00;1920.00;;;;;;4787668;30;20054;-92
2021/11/12 10:15:03;;;;;;;80.35;41.42;;;333.50;1894.40;;;;;;4757896;30;20062;-91
2021/11/12 10:17:31;;;;;;;65.57;34.77;;;409.60;1638.40;;;;;;4758523;30;20058;-91
2021/11/12 10:19:57;;;;;;;64.60;35.83;;;359.10;1689.60;;;;;;4758537;30;20089;-93
2021/11/12 10:22:27;;;;;;;67.63;36.15;;;333.50;1792.00;;;;;;4758350;30;20036;-92
2021/11/12 10:24:54;;;;;;;90.22;47.13;;;308.00;1868.80;;;;;;4758352;30;20032;-91
2021/11/12 10:27:25;;;;;;;67.93;35.92;;;307.30;1945.60;;;;;;4758147;30;20508;-93
2021/11/12 10:29:54;;;;;;;66.95;34.88;;;281.70;2048.00;;;;;;4757788;30;20035;-92
2021/11/12 10:32:40;;;;;;;66.32;35.45;;;256.40;2150.40;;;;;;4758137;30;20035;-92
2021/11/12 10:35:28;;;;;;;71.20;38.35;;;256.30;2176.00;;;;;;4772659;30;20031;-90
2021/11/12 10:38:06;;;;;;;78.40;43.70;;;256.60;2176.00;;;;;;4757225;30;20045;-91
2021/11/12 10:40:32;;;;;;;70.45;39.17;;;307.40;2099.20;;;;;;4757927;30;20059;-91
2021/11/12 10:42:58;;;;;;;69.50;37.63;;;308.00;1971.20;;;;;;4757898;30;20155;-91
2021/11/12 10:45:31;;;;;;;67.57;36.35;;;307.50;1996.80;;;;;;4757871;30;20032;-91
2021/11/12 10:48:03;;;;;;;68.75;37.28;;;307.40;1996.80;;;;;;4757551;30;20020;-91
2021/11/12 10:50:32;;;;;;;74.00;38.47;;;358.40;1868.80;;;;;;4777792;30;20062;-91
2021/11/12 10:53:06;;;;;;;120.55;70.30;;;384.10;1715.20;;;;;;4757250;30;20085;-90
2021/11/12 10:55:34;;;;;;;98.47;55.83;;;384.30;1664.00;;;;;;4755624;30;20036;-90
2021/11/12 10:58:11;;;;;;;73.00;41.75;;;359.30;1638.40;;;;;;4757192;30;20032;-91
2021/11/12 11:00:47;;;;;;;65.32;37.00;;;333.60;1792.00;;;;;;4757667;30;20032;-91
2021/11/12 11:03:20;;;;;;;73.75;42.50;;;333.00;1868.80;;;;;;4757947;30;20067;-90
2021/11/12 11:05:58;;;;;;;256.58;126.93;;;332.80;1920.00;;;;;;4757802;30;20119;-89
2021/11/12 11:08:26;;;;;;;196.55;92.30;;;332.80;1920.00;;;;;;4760510;30;20100;-91
2021/11/12 11:10:52;;;;;;;105.45;55.88;;;332.80;1920.00;;;;;;4775195;30;20035;-90
2021/11/12 11:13:26;;;;;;;164.75;79.10;;;333.00;1894.40;;;;;;4790051;29;20037;-89
2021/11/12 11:16:06;;;;;;;72.03;39.45;;;333.10;1868.80;;;;;;4775734;30;20039;-89
2021/11/12 11:18:37;;;;;;;270.80;125.15;;;333.00;1868.80;;;;;;4774941;30;20576;-90
2021/11/12 11:24:07;;;;;;;65.47;35.45;;;307.70;1894.40;;;;;;4790952;30;20390;-90
2021/11/12 11:26:44;;;;;;;66.68;35.53;;;282.40;1945.60;;;;;;4774427;30;20485;-90
2021/11/12 11:29:13;;;;;;;68.63;37.95;;;281.70;2048.00;;;;;;4773643;30;20064;-91
2021/11/12 11:31:40;;;;;;;85.78;43.50;;;281.60;2048.00;;;;;;4774505;30;20071;-91
2021/11/12 11:34:06;;;;;;;70.82;40.10;;;256.70;2073.60;;;;;;4773825;30;20034;-90
2021/11/12 11:36:37;;;;;;;71.18;37.20;;;256.60;2099.20;;;;;;4774891;30;20069;-90
2021/11/12 11:39:08;;;;;;;68.15;34.42;;;256.60;2124.80;;;;;;4774719;30;20031;-90
2021/11/12 11:41:35;;;;;;;69.93;35.35;;;256.70;2099.20;;;;;;4773396;30;20039;-89
2021/11/12 11:44:01;;;;;;;74.25;38.42;;;256.90;2073.60;;;;;;4774946;30;20027;-91
2021/11/12 11:46:30;;;;;;;72.60;38.83;;;256.90;2124.80;;;;;;4774763;30;20032;-92
2021/11/12 11:48:58;;;;;;;71.65;40.10;;;256.90;2099.20;;;;;;4774727;30;20042;-91
2021/11/12 11:51:34;;;;;;;63.92;36.05;;;281.60;2150.40;;;;;;4774637;30;20035;-89
2021/11/12 11:54:06;;;;;;;97.43;65.38;;;282.20;2048.00;;;;;;4774539;30;20031;-91
2021/11/12 11:56:55;;;;;;;69.07;41.28;;;307.30;2022.40;;;;;;4774523;30;20112;-91
2021/11/12 11:59:37;;;;;;;66.28;36.63;;;307.90;1920.00;;;;;;4774212;30;20074;-91
2021/11/12 12:02:09;;;;;;;66.47;38.75;;;333.60;1792.00;;;;;;4767262;30;20096;-92
2021/11/12 12:04:49;;;;;;;65.88;38.03;;;359.00;1715.20;;;;;;4774231;30;20054;-90
2021/11/12 12:07:27;;;;;;;87.65;52.10;;;358.90;1689.60;;;;;;4774181;29;20030;-91
2021/11/12 12:09:59;;;;;;;64.43;37.60;;;358.60;1740.80;;;;;;4774284;30;20043;-92
2021/11/12 12:12:31;;;;;;;69.63;39.33;;;359.10;1664.00;;;;;;4789177;30;20034;-90
2021/11/12 12:15:06;;;;;;;59.58;34.30;;;384.10;1612.80;;;;;;4788844;30;20042;-92
2021/11/12 12:17:34;;;;;;;59.63;32.97;;;359.20;1612.80;;;;;;4788993;30;20122;-90
2021/11/12 13:20:42;;;;;;;52.00;32.35;;;538.40;1049.60;;;;;;4789943;30;20088;-90
2021/11/12 13:23:16;;;;;;;56.50;35.03;;;563.50;1049.60;;;;;;4773241;30;20048;-90
2021/11/12 13:26:03;;;;;;;58.22;36.38;;;563.50;1049.60;;;;;;4788122;30;20382;-90
2021/11/12 13:28:44;;;;;;;60.42;34.60;;;538.30;1049.60;;;;;;4773195;30;20374;-90
2021/11/12 13:31:15;;;;;;;53.67;33.75;;;538.20;1075.20;;;;;;4772698;30;20102;-91
2021/11/12 13:33:49;;;;;;;56.67;33.80;;;538.10;1075.20;;;;;;4772689;30;20036;-91
2021/11/12 13:36:29;;;;;;;47.45;30.52;;;538.10;1049.60;;;;;;4771449;30;20047;-91
2021/11/12 13:39:17;;;;;;;57.75;33.20;;;487.20;1126.40;;;;;;4774733;30;20020;-90
2021/11/12 13:41:47;;;;;;;44.67;29.25;;;487.20;1331.20;;;;;;4775795;30;20035;-91
2021/11/12 13:44:19;;;;;;;47.17;28.23;;;460.80;1331.20;;;;;;4792206;30;20019;-91
2021/11/12 13:46:56;;;;;;;47.33;29.58;;;410.50;1356.80;;;;;;4776246;30;20546;-93
2021/11/12 13:49:36;;;;;;;54.53;31.88;;;384.10;1484.80;;;;;;4776214;30;20639;-91
2021/11/12 13:52:23;;;;;;;56.30;35.90;;;359.30;1536.00;;;;;;4798472;29;20035;-91
2021/11/12 13:54:53;;;;;;;49.50;31.48;;;358.70;1612.80;;;;;;4776321;30;20485;-91
2021/11/12 13:57:22;;;;;;;64.43;39.85;;;333.70;1638.40;;;;;;4775834;30;20031;-90
2021/11/12 14:00:04;;;;;;;57.40;37.65;;;333.10;1715.20;;;;;;4771414;30;20405;-92
2021/11/12 14:02:49;;;;;;;67.07;41.72;;;307.80;1792.00;;;;;;4774031;30;20055;-91
2021/11/12 14:05:16;;;;;;;50.90;31.38;;;307.20;1894.40;;;;;;4775854;30;20032;-92
2021/11/12 14:07:44;;;;;;;77.80;33.63;;;281.90;1971.20;;;;;;4776020;29;20050;-92
2021/11/12 14:10:13;;;;;;;52.83;34.28;;;256.80;2048.00;;;;;;4791106;30;20047;-91
2021/11/12 14:13:03;;;;;;;56.20;36.45;;;256.60;2073.60;;;;;;4776103;30;20042;-91
2021/11/12 14:15:32;;;;;;;66.38;41.78;;;256.60;2099.20;;;;;;4776096;30;20130;-91
2021/11/12 14:45:41;;;;;;;73.53;41.05;;;230.70;2252.80;;;;;;4794948;30;20060;-93
2021/11/12 15:00:38;;;;;;;162.90;82.10;;;205.50;2252.80;;;;;;4811731;29;20405;-90
2021/11/12 15:09:49;;;;;;;119.55;58.30;;;205.10;2252.80;;;;;;4819245;29;20035;-89
2021/11/12 15:12:42;;;;;;;128.48;66.95;;;205.00;2252.80;;;;;;4804603;29;20034;-91
